sensor_id;sensor_type;location;lat;lon;timestamp;P1;durP1;ratioP1;P2;durP2;ratioP2
43819;SDS011;67762;52.476;6.046;2023-09-08T00:02:07;1999.90;;;999.90;;
43819;SDS011;67762;52.476;6.046;2023-09-08T00:04:33;1999.90;;;999.90;;
43819;SDS011;67762;52.476;6.046;2023-09-08T00:06:59;1999.90;;;999.90;;
43819;SDS011;67762;52.476;6.046;2023-09-08T00:09:25;1999.90;;;999.90;;
43819;SDS011;67762;52.476;6.046;2023-09-08T00:11:51;1999.90;;;999.90;;
43819;SDS011;67762;52.476;6.046;2023-09-08T00:14:17;1999.90;;;999.90;;
43819;SDS011;67762;52.476;6.046;2023-09-08T00:16:43;1999.90;;;999.90;;
43819;SDS011;67762;52.476;6.046;2023-09-08T00:19:12;1999.90;;;999.90;;
43819;SDS011;67762;52.476;6.046;2023-09-08T00:21:38;1999.90;;;999.90;;
43819;SDS011;67762;52.476;6.046;2023-09-08T00:24:04;1999.90;;;999.90;;
43819;SDS011;67762;52.476;6.046;2023-09-08T00:26:30;1999.90;;;999.90;;
43819;SDS011;67762;52.476;6.046;2023-09-08T00:28:56;1999.90;;;999.90;;
43819;SDS011;67762;52.476;6.046;2023-09-08T00:31:22;1999.90;;;999.90;;
43819;SDS011;67762;52.476;6.046;2023-09-08T00:33:47;1999.90;;;999.90;;
43819;SDS011;67762;52.476;6.046;2023-09-08T00:36:13;1999.90;;;999.90;;
43819;SDS011;67762;52.476;6.046;2023-09-08T00:38:40;1999.90;;;999.90;;
43819;SDS011;67762;52.476;6.046;2023-09-08T00:41:06;1999.90;;;999.90;;
43819;SDS011;67762;52.476;6.046;2023-09-08T00:43:32;1999.90;;;999.90;;
43819;SDS011;67762;52.476;6.046;2023-09-08T00:45:58;1999.90;;;999.90;;
43819;SDS011;67762;52.476;6.046;2023-09-08T00:48:25;1999.90;;;999.90;;
43819;SDS011;67762;52.476;6.046;2023-09-08T00:50:51;1999.90;;;999.90;;
43819;SDS011;67762;52.476;6.046;2023-09-08T00:53:17;1999.90;;;999.90;;
43819;SDS011;67762;52.476;6.046;2023-09-08T00:55:43;1999.90;;;999.90;;
43819;SDS011;67762;52.476;6.046;2023-09-08T00:58:11;1999.90;;;999.90;;
43819;SDS011;67762;52.476;6.046;2023-09-08T01:00:37;1999.90;;;999.90;;
43819;SDS011;67762;52.476;6.046;2023-09-08T01:03:03;1999.90;;;999.90;;
43819;SDS011;67762;52.476;6.046;2023-09-08T01:05:30;1999.90;;;999.90;;
43819;SDS011;67762;52.476;6.046;2023-09-08T01:07:56;1999.90;;;999.90;;
43819;SDS011;67762;52.476;6.046;2023-09-08T01:10:24;1999.90;;;999.90;;
43819;SDS011;67762;52.476;6.046;2023-09-08T01:12:50;1999.90;;;999.90;;
43819;SDS011;67762;52.476;6.046;2023-09-08T01:15:15;1999.90;;;999.90;;
43819;SDS011;67762;52.476;6.046;2023-09-08T01:17:41;1999.90;;;999.90;;
43819;SDS011;67762;52.476;6.046;2023-09-08T01:26:22;1999.90;;;999.90;;
43819;SDS011;67762;52.476;6.046;2023-09-08T01:28:56;1999.90;;;999.90;;
43819;SDS011;67762;52.476;6.046;2023-09-08T01:31:23;1999.90;;;999.90;;
43819;SDS011;67762;52.476;6.046;2023-09-08T01:33:48;1999.90;;;999.90;;
43819;SDS011;67762;52.476;6.046;2023-09-08T01:36:15;1999.90;;;999.90;;
43819;SDS011;67762;52.476;6.046;2023-09-08T01:38:41;1999.90;;;999.90;;
43819;SDS011;67762;52.476;6.046;2023-09-08T01:41:06;1999.90;;;999.90;;
43819;SDS011;67762;52.476;6.046;2023-09-08T01:43:32;1999.90;;;999.90;;
43819;SDS011;67762;52.476;6.046;2023-09-08T01:45:57;1999.90;;;999.90;;
43819;SDS011;67762;52.476;6.046;2023-09-08T01:48:23;1999.90;;;999.90;;
43819;SDS011;67762;52.476;6.046;2023-09-08T01:50:49;1999.90;;;999.90;;
43819;SDS011;67762;52.476;6.046;2023-09-08T01:53:15;1999.90;;;999.90;;
43819;SDS011;67762;52.476;6.046;2023-09-08T01:55:41;1999.90;;;999.90;;
43819;SDS011;67762;52.476;6.046;2023-09-08T01:58:06;1999.90;;;999.90;;
43819;SDS011;67762;52.476;6.046;2023-09-08T02:00:32;1999.90;;;999.90;;
43819;SDS011;67762;52.476;6.046;2023-09-08T02:02:58;1999.90;;;999.90;;
43819;SDS011;67762;52.476;6.046;2023-09-08T02:05:24;1999.90;;;999.90;;
43819;SDS011;67762;52.476;6.046;2023-09-08T02:07:50;1999.90;;;999.90;;
43819;SDS011;67762;52.476;6.046;2023-09-08T02:10:16;1999.90;;;999.90;;
43819;SDS011;67762;52.476;6.046;2023-09-08T02:12:42;1999.90;;;999.90;;
43819;SDS011;67762;52.476;6.046;2023-09-08T02:15:08;1999.90;;;999.90;;
43819;SDS011;67762;52.476;6.046;2023-09-08T02:17:36;1999.90;;;999.90;;
43819;SDS011;67762;52.476;6.046;2023-09-08T02:20:02;1999.90;;;999.90;;
43819;SDS011;67762;52.476;6.046;2023-09-08T02:22:29;1999.90;;;999.90;;
43819;SDS011;67762;52.476;6.046;2023-09-08T02:24:55;1999.90;;;999.90;;
43819;SDS011;67762;52.476;6.046;2023-09-08T02:27:23;1999.90;;;999.90;;
43819;SDS011;67762;52.476;6.046;2023-09-08T02:29:50;1999.90;;;999.90;;
43819;SDS011;67762;52.476;6.046;2023-09-08T02:32:16;1999.90;;;999.90;;
43819;SDS011;67762;52.476;6.046;2023-09-08T02:34:41;1999.90;;;999.90;;
43819;SDS011;67762;52.476;6.046;2023-09-08T02:37:08;1999.90;;;999.90;;
43819;SDS011;67762;52.476;6.046;2023-09-08T02:39:34;1999.90;;;999.90;;
43819;SDS011;67762;52.476;6.046;2023-09-08T02:42:01;1999.90;;;999.90;;
43819;SDS011;67762;52.476;6.046;2023-09-08T02:44:27;1999.90;;;999.90;;
43819;SDS011;67762;52.476;6.046;2023-09-08T02:46:53;1999.90;;;999.90;;
43819;SDS011;67762;52.476;6.046;2023-09-08T02:49:19;1999.90;;;999.90;;
43819;SDS011;67762;52.476;6.046;2023-09-08T02:51:45;1999.90;;;999.90;;
43819;SDS011;67762;52.476;6.046;2023-09-08T02:54:10;1999.90;;;999.90;;
43819;SDS011;67762;52.476;6.046;2023-09-08T02:56:36;1999.90;;;999.90;;
43819;SDS011;67762;52.476;6.046;2023-09-08T02:59:02;1999.90;;;999.90;;
43819;SDS011;67762;52.476;6.046;2023-09-08T03:01:28;1999.90;;;999.90;;
43819;SDS011;67762;52.476;6.046;2023-09-08T03:03:53;1999.90;;;999.90;;
43819;SDS011;67762;52.476;6.046;2023-09-08T03:06:20;1999.90;;;999.90;;
43819;SDS011;67762;52.476;6.046;2023-09-08T03:08:47;1999.90;;;999.90;;
43819;SDS011;67762;52.476;6.046;2023-09-08T03:11:12;1999.90;;;999.90;;
43819;SDS011;67762;52.476;6.046;2023-09-08T03:13:39;1999.90;;;999.90;;
43819;SDS011;67762;52.476;6.046;2023-09-08T03:16:05;1999.90;;;999.90;;
43819;SDS011;67762;52.476;6.046;2023-09-08T03:18:32;1999.90;;;999.90;;
43819;SDS011;67762;52.476;6.046;2023-09-08T03:20:58;1999.90;;;999.90;;
43819;SDS011;67762;52.476;6.046;2023-09-08T03:23:27;1999.90;;;999.90;;
43819;SDS011;67762;52.476;6.046;2023-09-08T03:25:52;1999.90;;;999.90;;
43819;SDS011;67762;52.476;6.046;2023-09-08T03:28:18;1999.90;;;999.90;;
43819;SDS011;67762;52.476;6.046;2023-09-08T03:30:44;1999.90;;;999.90;;
43819;SDS011;67762;52.476;6.046;2023-09-08T03:33:09;1999.90;;;999.90;;
43819;SDS011;67762;52.476;6.046;2023-09-08T03:35:35;1999.90;;;999.90;;
43819;SDS011;67762;52.476;6.046;2023-09-08T03:38:01;1999.90;;;999.90;;
43819;SDS011;67762;52.476;6.046;2023-09-08T03:40:27;1999.90;;;999.90;;
43819;SDS011;67762;52.476;6.046;2023-09-08T03:42:53;1999.90;;;999.90;;
43819;SDS011;67762;52.476;6.046;2023-09-08T03:45:19;1999.90;;;999.90;;
43819;SDS011;67762;52.476;6.046;2023-09-08T03:47:44;1999.90;;;999.90;;
43819;SDS011;67762;52.476;6.046;2023-09-08T03:50:10;1999.90;;;999.90;;
43819;SDS011;67762;52.476;6.046;2023-09-08T03:52:36;1999.90;;;999.90;;
43819;SDS011;67762;52.476;6.046;2023-09-08T03:55:01;1999.90;;;999.90;;
43819;SDS011;67762;52.476;6.046;2023-09-08T03:57:27;1999.90;;;999.90;;
43819;SDS011;67762;52.476;6.046;2023-09-08T03:59:53;1999.90;;;999.90;;
43819;SDS011;67762;52.476;6.046;2023-09-08T04:02:19;1999.90;;;999.90;;
43819;SDS011;67762;52.476;6.046;2023-09-08T04:04:44;1999.90;;;999.90;;
43819;SDS011;67762;52.476;6.046;2023-09-08T04:07:10;1999.90;;;999.90;;
43819;SDS011;67762;52.476;6.046;2023-09-08T04:09:36;1999.90;;;999.90;;
43819;SDS011;67762;52.476;6.046;2023-09-08T04:12:01;1999.90;;;999.90;;
43819;SDS011;67762;52.476;6.046;2023-09-08T04:14:29;1999.90;;;999.90;;
43819;SDS011;67762;52.476;6.046;2023-09-08T04:16:55;1999.90;;;999.90;;
43819;SDS011;67762;52.476;6.046;2023-09-08T04:19:21;1999.90;;;999.90;;
43819;SDS011;67762;52.476;6.046;2023-09-08T04:21:47;1999.90;;;999.90;;
43819;SDS011;67762;52.476;6.046;2023-09-08T04:24:12;1999.90;;;999.90;;
43819;SDS011;67762;52.476;6.046;2023-09-08T04:26:38;1999.90;;;999.90;;
43819;SDS011;67762;52.476;6.046;2023-09-08T04:29:04;1999.90;;;999.90;;
43819;SDS011;67762;52.476;6.046;2023-09-08T04:31:30;1999.90;;;999.90;;
43819;SDS011;67762;52.476;6.046;2023-09-08T04:33:56;1999.90;;;999.90;;
43819;SDS011;67762;52.476;6.046;2023-09-08T04:36:22;1999.90;;;999.90;;
43819;SDS011;67762;52.476;6.046;2023-09-08T04:38:47;1999.90;;;999.90;;
43819;SDS011;67762;52.476;6.046;2023-09-08T04:41:13;1999.90;;;999.90;;
43819;SDS011;67762;52.476;6.046;2023-09-08T04:43:39;1999.90;;;999.90;;
43819;SDS011;67762;52.476;6.046;2023-09-08T04:46:05;1999.90;;;999.90;;
43819;SDS011;67762;52.476;6.046;2023-09-08T04:48:31;1999.90;;;999.90;;
43819;SDS011;67762;52.476;6.046;2023-09-08T04:50:57;1999.90;;;999.90;;
43819;SDS011;67762;52.476;6.046;2023-09-08T04:53:22;1999.90;;;999.90;;
43819;SDS011;67762;52.476;6.046;2023-09-08T04:55:48;1999.90;;;999.90;;
43819;SDS011;67762;52.476;6.046;2023-09-08T04:58:14;1999.90;;;999.90;;
43819;SDS011;67762;52.476;6.046;2023-09-08T05:00:40;1999.90;;;999.90;;
43819;SDS011;67762;52.476;6.046;2023-09-08T05:03:06;1999.90;;;999.90;;
43819;SDS011;67762;52.476;6.046;2023-09-08T05:05:32;1999.90;;;999.90;;
43819;SDS011;67762;52.476;6.046;2023-09-08T05:07:58;1999.90;;;999.90;;
43819;SDS011;67762;52.476;6.046;2023-09-08T05:10:24;1999.90;;;999.90;;
43819;SDS011;67762;52.476;6.046;2023-09-08T05:12:50;1999.90;;;999.90;;
43819;SDS011;67762;52.476;6.046;2023-09-08T05:15:17;1999.90;;;999.90;;
43819;SDS011;67762;52.476;6.046;2023-09-08T05:17:48;1999.90;;;999.90;;
43819;SDS011;67762;52.476;6.046;2023-09-08T05:20:15;1999.90;;;999.90;;
43819;SDS011;67762;52.476;6.046;2023-09-08T05:22:42;1999.90;;;999.90;;
43819;SDS011;67762;52.476;6.046;2023-09-08T05:25:07;1999.90;;;999.90;;
43819;SDS011;67762;52.476;6.046;2023-09-08T05:27:34;1999.90;;;999.90;;
43819;SDS011;67762;52.476;6.046;2023-09-08T05:29:59;1999.90;;;999.90;;
43819;SDS011;67762;52.476;6.046;2023-09-08T05:32:25;1999.90;;;999.90;;
43819;SDS011;67762;52.476;6.046;2023-09-08T05:34:51;1999.90;;;999.90;;
43819;SDS011;67762;52.476;6.046;2023-09-08T05:37:17;1999.90;;;999.90;;
43819;SDS011;67762;52.476;6.046;2023-09-08T05:39:43;1999.90;;;999.90;;
43819;SDS011;67762;52.476;6.046;2023-09-08T05:42:08;1999.90;;;999.90;;
43819;SDS011;67762;52.476;6.046;2023-09-08T05:44:34;1999.90;;;999.90;;
43819;SDS011;67762;52.476;6.046;2023-09-08T05:47:00;1999.90;;;999.90;;
43819;SDS011;67762;52.476;6.046;2023-09-08T05:49:26;1999.90;;;999.90;;
43819;SDS011;67762;52.476;6.046;2023-09-08T05:51:52;1999.90;;;999.90;;
43819;SDS011;67762;52.476;6.046;2023-09-08T05:54:18;1999.90;;;999.90;;
43819;SDS011;67762;52.476;6.046;2023-09-08T05:56:44;1999.90;;;999.90;;
43819;SDS011;67762;52.476;6.046;2023-09-08T05:59:10;1999.90;;;999.90;;
43819;SDS011;67762;52.476;6.046;2023-09-08T06:01:37;1999.90;;;999.90;;
43819;SDS011;67762;52.476;6.046;2023-09-08T06:04:06;1999.90;;;999.90;;
43819;SDS011;67762;52.476;6.046;2023-09-08T06:06:33;1999.90;;;999.90;;
43819;SDS011;67762;52.476;6.046;2023-09-08T06:08:59;1999.90;;;999.90;;
43819;SDS011;67762;52.476;6.046;2023-09-08T06:11:26;1999.90;;;999.90;;
43819;SDS011;67762;52.476;6.046;2023-09-08T06:13:51;1999.90;;;999.90;;
43819;SDS011;67762;52.476;6.046;2023-09-08T06:16:21;1999.90;;;999.90;;
43819;SDS011;67762;52.476;6.046;2023-09-08T06:18:47;1999.90;;;999.90;;
43819;SDS011;67762;52.476;6.046;2023-09-08T06:21:16;1999.90;;;999.90;;
43819;SDS011;67762;52.476;6.046;2023-09-08T06:23:42;1999.90;;;999.90;;
43819;SDS011;67762;52.476;6.046;2023-09-08T06:26:08;1999.90;;;999.90;;
43819;SDS011;67762;52.476;6.046;2023-09-08T06:28:35;1999.90;;;999.90;;
43819;SDS011;67762;52.476;6.046;2023-09-08T06:31:02;1999.90;;;999.90;;
43819;SDS011;67762;52.476;6.046;2023-09-08T06:33:29;1999.90;;;999.90;;
43819;SDS011;67762;52.476;6.046;2023-09-08T06:35:55;1999.90;;;999.90;;
43819;SDS011;67762;52.476;6.046;2023-09-08T06:38:21;1999.90;;;999.90;;
43819;SDS011;67762;52.476;6.046;2023-09-08T06:40:46;1999.90;;;999.90;;
43819;SDS011;67762;52.476;6.046;2023-09-08T06:43:13;1999.90;;;999.90;;
43819;SDS011;67762;52.476;6.046;2023-09-08T06:46:02;1999.90;;;999.90;;
43819;SDS011;67762;52.476;6.046;2023-09-08T06:48:28;1999.90;;;999.90;;
43819;SDS011;67762;52.476;6.046;2023-09-08T06:50:54;1999.90;;;999.90;;
43819;SDS011;67762;52.476;6.046;2023-09-08T06:53:22;1999.90;;;999.90;;
43819;SDS011;67762;52.476;6.046;2023-09-08T06:55:48;1999.90;;;999.90;;
43819;SDS011;67762;52.476;6.046;2023-09-08T06:58:14;1999.90;;;999.90;;
43819;SDS011;67762;52.476;6.046;2023-09-08T07:00:41;1999.90;;;999.90;;
43819;SDS011;67762;52.476;6.046;2023-09-08T07:03:07;1999.90;;;999.90;;
43819;SDS011;67762;52.476;6.046;2023-09-08T07:05:38;1999.90;;;999.90;;
43819;SDS011;67762;52.476;6.046;2023-09-08T07:08:05;1999.90;;;999.90;;
43819;SDS011;67762;52.476;6.046;2023-09-08T07:10:32;1999.90;;;999.90;;
43819;SDS011;67762;52.476;6.046;2023-09-08T07:12:58;1999.90;;;999.90;;
43819;SDS011;67762;52.476;6.046;2023-09-08T07:15:24;1999.90;;;999.90;;
43819;SDS011;67762;52.476;6.046;2023-09-08T07:17:50;1999.90;;;999.90;;
43819;SDS011;67762;52.476;6.046;2023-09-08T07:20:16;1999.90;;;999.90;;
43819;SDS011;67762;52.476;6.046;2023-09-08T07:22:43;1999.90;;;999.90;;
43819;SDS011;67762;52.476;6.046;2023-09-08T07:25:09;1999.90;;;999.90;;
43819;SDS011;67762;52.476;6.046;2023-09-08T07:27:35;1999.90;;;999.90;;
43819;SDS011;67762;52.476;6.046;2023-09-08T07:30:01;1999.90;;;999.90;;
43819;SDS011;67762;52.476;6.046;2023-09-08T07:32:27;1999.90;;;999.90;;
43819;SDS011;67762;52.476;6.046;2023-09-08T07:34:53;1999.90;;;999.90;;
43819;SDS011;67762;52.476;6.046;2023-09-08T07:37:21;1999.90;;;999.90;;
43819;SDS011;67762;52.476;6.046;2023-09-08T07:39:48;1999.90;;;999.90;;
43819;SDS011;67762;52.476;6.046;2023-09-08T07:42:15;1999.90;;;999.90;;
43819;SDS011;67762;52.476;6.046;2023-09-08T07:44:41;1999.90;;;999.90;;
43819;SDS011;67762;52.476;6.046;2023-09-08T07:47:06;1999.90;;;999.90;;
43819;SDS011;67762;52.476;6.046;2023-09-08T07:49:35;1999.90;;;999.90;;
43819;SDS011;67762;52.476;6.046;2023-09-08T07:52:01;1999.90;;;999.90;;
43819;SDS011;67762;52.476;6.046;2023-09-08T07:54:27;1999.90;;;999.90;;
43819;SDS011;67762;52.476;6.046;2023-09-08T07:56:52;1999.90;;;999.90;;
43819;SDS011;67762;52.476;6.046;2023-09-08T07:59:18;1999.90;;;999.90;;
43819;SDS011;67762;52.476;6.046;2023-09-08T08:01:44;1999.90;;;999.90;;
43819;SDS011;67762;52.476;6.046;2023-09-08T08:04:09;1999.90;;;999.90;;
43819;SDS011;67762;52.476;6.046;2023-09-08T08:06:35;1999.90;;;999.90;;
43819;SDS011;67762;52.476;6.046;2023-09-08T08:09:01;1999.90;;;999.90;;
43819;SDS011;67762;52.476;6.046;2023-09-08T08:11:26;1999.90;;;999.90;;
43819;SDS011;67762;52.476;6.046;2023-09-08T08:13:53;1999.90;;;999.90;;
43819;SDS011;67762;52.476;6.046;2023-09-08T08:16:19;1999.90;;;999.90;;
43819;SDS011;67762;52.476;6.046;2023-09-08T08:18:47;1999.90;;;999.90;;
43819;SDS011;67762;52.476;6.046;2023-09-08T08:21:13;1999.90;;;999.90;;
43819;SDS011;67762;52.476;6.046;2023-09-08T08:23:38;1999.90;;;999.90;;
43819;SDS011;67762;52.476;6.046;2023-09-08T08:26:04;1999.90;;;999.90;;
43819;SDS011;67762;52.476;6.046;2023-09-08T08:28:29;1999.90;;;999.90;;
43819;SDS011;67762;52.476;6.046;2023-09-08T08:30:55;1999.90;;;999.90;;
43819;SDS011;67762;52.476;6.046;2023-09-08T08:33:21;1999.90;;;999.90;;
43819;SDS011;67762;52.476;6.046;2023-09-08T08:35:48;1999.90;;;999.90;;
43819;SDS011;67762;52.476;6.046;2023-09-08T08:38:15;1999.90;;;999.90;;
43819;SDS011;67762;52.476;6.046;2023-09-08T08:40:41;1999.90;;;999.90;;
43819;SDS011;67762;52.476;6.046;2023-09-08T08:43:07;1999.90;;;999.90;;
43819;SDS011;67762;52.476;6.046;2023-09-08T08:45:33;1999.90;;;999.90;;
43819;SDS011;67762;52.476;6.046;2023-09-08T08:48:01;1999.90;;;999.90;;
43819;SDS011;67762;52.476;6.046;2023-09-08T08:50:28;1999.90;;;999.90;;
43819;SDS011;67762;52.476;6.046;2023-09-08T08:52:55;1999.90;;;999.90;;
43819;SDS011;67762;52.476;6.046;2023-09-08T08:55:21;1999.90;;;999.90;;
43819;SDS011;67762;52.476;6.046;2023-09-08T08:57:48;1999.90;;;999.90;;
43819;SDS011;67762;52.476;6.046;2023-09-08T09:00:15;1999.90;;;999.90;;
43819;SDS011;67762;52.476;6.046;2023-09-08T09:02:44;1999.90;;;999.90;;
43819;SDS011;67762;52.476;6.046;2023-09-08T09:05:13;1999.90;;;999.90;;
43819;SDS011;67762;52.476;6.046;2023-09-08T09:07:41;1999.90;;;999.90;;
43819;SDS011;67762;52.476;6.046;2023-09-08T09:10:07;1999.90;;;999.90;;
43819;SDS011;67762;52.476;6.046;2023-09-08T09:12:35;1999.90;;;999.90;;
43819;SDS011;67762;52.476;6.046;2023-09-08T09:15:02;1999.90;;;999.90;;
43819;SDS011;67762;52.476;6.046;2023-09-08T09:17:30;1999.90;;;999.90;;
43819;SDS011;67762;52.476;6.046;2023-09-08T09:20:12;1999.90;;;999.90;;
43819;SDS011;67762;52.476;6.046;2023-09-08T09:22:46;1999.90;;;999.90;;
43819;SDS011;67762;52.476;6.046;2023-09-08T09:25:22;695.58;;;435.50;;
43819;SDS011;67762;52.476;6.046;2023-09-08T09:27:52;297.75;;;282.38;;
43819;SDS011;67762;52.476;6.046;2023-09-08T09:30:19;1999.90;;;999.90;;
43819;SDS011;67762;52.476;6.046;2023-09-08T09:32:44;1075.57;;;571.38;;
43819;SDS011;67762;52.476;6.046;2023-09-08T09:35:10;719.22;;;458.13;;
43819;SDS011;67762;52.476;6.046;2023-09-08T09:37:36;749.10;;;486.10;;
43819;SDS011;67762;52.476;6.046;2023-09-08T09:40:03;302.58;;;287.38;;
43819;SDS011;67762;52.476;6.046;2023-09-08T09:42:32;328.52;;;311.88;;
43819;SDS011;67762;52.476;6.046;2023-09-08T09:45:00;364.77;;;345.58;;
43819;SDS011;67762;52.476;6.046;2023-09-08T09:47:26;304.02;;;288.73;;
43819;SDS011;67762;52.476;6.046;2023-09-08T09:49:52;308.65;;;292.33;;
43819;SDS011;67762;52.476;6.046;2023-09-08T09:52:22;370.27;;;351.38;;
43819;SDS011;67762;52.476;6.046;2023-09-08T09:54:48;333.55;;;316.73;;
43819;SDS011;67762;52.476;6.046;2023-09-08T09:57:19;236.32;;;223.75;;
43819;SDS011;67762;52.476;6.046;2023-09-08T09:59:46;272.77;;;259.20;;
43819;SDS011;67762;52.476;6.046;2023-09-08T10:02:15;209.73;;;199.23;;
43819;SDS011;67762;52.476;6.046;2023-09-08T10:04:44;313.63;;;297.63;;
43819;SDS011;67762;52.476;6.046;2023-09-08T10:07:12;299.15;;;284.13;;
43819;SDS011;67762;52.476;6.046;2023-09-08T10:09:40;316.15;;;299.85;;
43819;SDS011;67762;52.476;6.046;2023-09-08T10:12:06;375.60;;;354.95;;
43819;SDS011;67762;52.476;6.046;2023-09-08T10:14:37;310.15;;;294.10;;
43819;SDS011;67762;52.476;6.046;2023-09-08T10:17:07;317.23;;;300.95;;
43819;SDS011;67762;52.476;6.046;2023-09-08T10:19:37;353.63;;;335.20;;
43819;SDS011;67762;52.476;6.046;2023-09-08T10:22:06;314.27;;;297.85;;
43819;SDS011;67762;52.476;6.046;2023-09-08T10:24:38;131.77;;;123.93;;
43819;SDS011;67762;52.476;6.046;2023-09-08T10:29:35;364.45;;;345.23;;
43819;SDS011;67762;52.476;6.046;2023-09-08T10:32:02;254.57;;;241.32;;
43819;SDS011;67762;52.476;6.046;2023-09-08T10:34:30;266.05;;;252.35;;
43819;SDS011;67762;52.476;6.046;2023-09-08T10:36:57;287.27;;;272.92;;
43819;SDS011;67762;52.476;6.046;2023-09-08T10:47:13;258.48;;;245.20;;
43819;SDS011;67762;52.476;6.046;2023-09-08T10:49:40;194.75;;;184.57;;
43819;SDS011;67762;52.476;6.046;2023-09-08T10:52:09;310.38;;;294.60;;
43819;SDS011;67762;52.476;6.046;2023-09-08T10:54:43;442.63;;;416.60;;
43819;SDS011;67762;52.476;6.046;2023-09-08T10:57:23;260.33;;;247.05;;
43819;SDS011;67762;52.476;6.046;2023-09-08T10:59:53;244.43;;;231.82;;
43819;SDS011;67762;52.476;6.046;2023-09-08T11:02:33;338.00;;;320.08;;
43819;SDS011;67762;52.476;6.046;2023-09-08T11:05:04;299.50;;;284.40;;
43819;SDS011;67762;52.476;6.046;2023-09-08T11:07:35;270.95;;;257.15;;
43819;SDS011;67762;52.476;6.046;2023-09-08T11:10:05;330.20;;;312.77;;
43819;SDS011;67762;52.476;6.046;2023-09-08T11:12:31;283.13;;;268.75;;
43819;SDS011;67762;52.476;6.046;2023-09-08T11:14:57;321.45;;;304.63;;
43819;SDS011;67762;52.476;6.046;2023-09-08T11:17:29;249.70;;;237.05;;
43819;SDS011;67762;52.476;6.046;2023-09-08T11:19:57;210.05;;;199.05;;
43819;SDS011;67762;52.476;6.046;2023-09-08T11:22:23;332.15;;;314.77;;
43819;SDS011;67762;52.476;6.046;2023-09-08T11:24:55;280.70;;;265.70;;
43819;SDS011;67762;52.476;6.046;2023-09-08T11:27:25;339.15;;;321.17;;
43819;SDS011;67762;52.476;6.046;2023-09-08T11:29:53;84.13;;;79.65;;
43819;SDS011;67762;52.476;6.046;2023-09-08T11:32:19;242.55;;;230.05;;
43819;SDS011;67762;52.476;6.046;2023-09-08T11:34:45;293.08;;;278.33;;
43819;SDS011;67762;52.476;6.046;2023-09-08T11:37:14;239.93;;;227.85;;
43819;SDS011;67762;52.476;6.046;2023-09-08T11:39:43;381.13;;;359.95;;
43819;SDS011;67762;52.476;6.046;2023-09-08T11:42:11;238.75;;;226.80;;
43819;SDS011;67762;52.476;6.046;2023-09-08T11:44:38;257.00;;;243.82;;
43819;SDS011;67762;52.476;6.046;2023-09-08T11:47:09;260.95;;;248.00;;
43819;SDS011;67762;52.476;6.046;2023-09-08T11:49:41;266.63;;;253.13;;
43819;SDS011;67762;52.476;6.046;2023-09-08T11:52:07;276.17;;;262.02;;
43819;SDS011;67762;52.476;6.046;2023-09-08T11:54:34;297.80;;;282.30;;
43819;SDS011;67762;52.476;6.046;2023-09-08T11:57:01;359.25;;;339.92;;
43819;SDS011;67762;52.476;6.046;2023-09-08T11:59:30;223.65;;;212.18;;
43819;SDS011;67762;52.476;6.046;2023-09-08T12:01:58;156.40;;;148.00;;
43819;SDS011;67762;52.476;6.046;2023-09-08T12:04:25;142.38;;;134.98;;
43819;SDS011;67762;52.476;6.046;2023-09-08T12:06:51;267.10;;;253.43;;
43819;SDS011;67762;52.476;6.046;2023-09-08T12:09:18;252.10;;;239.40;;
43819;SDS011;67762;52.476;6.046;2023-09-08T12:11:46;209.15;;;198.63;;
43819;SDS011;67762;52.476;6.046;2023-09-08T12:14:13;157.65;;;149.25;;
43819;SDS011;67762;52.476;6.046;2023-09-08T12:16:40;223.20;;;212.13;;
43819;SDS011;67762;52.476;6.046;2023-09-08T12:19:07;242.63;;;230.27;;
43819;SDS011;67762;52.476;6.046;2023-09-08T12:21:35;218.90;;;207.80;;
43819;SDS011;67762;52.476;6.046;2023-09-08T12:24:20;211.40;;;200.48;;
43819;SDS011;67762;52.476;6.046;2023-09-08T12:26:49;234.27;;;222.50;;
43819;SDS011;67762;52.476;6.046;2023-09-08T12:29:15;216.00;;;204.88;;
43819;SDS011;67762;52.476;6.046;2023-09-08T12:31:40;233.65;;;221.88;;
43819;SDS011;67762;52.476;6.046;2023-09-08T12:34:06;236.32;;;224.13;;
43819;SDS011;67762;52.476;6.046;2023-09-08T12:36:34;261.45;;;248.30;;
43819;SDS011;67762;52.476;6.046;2023-09-08T12:39:01;312.40;;;295.60;;
43819;SDS011;67762;52.476;6.046;2023-09-08T12:41:29;260.25;;;247.20;;
43819;SDS011;67762;52.476;6.046;2023-09-08T12:43:55;234.05;;;222.38;;
43819;SDS011;67762;52.476;6.046;2023-09-08T12:46:21;283.05;;;268.20;;
43819;SDS011;67762;52.476;6.046;2023-09-08T12:48:46;209.05;;;198.43;;
43819;SDS011;67762;52.476;6.046;2023-09-08T12:51:12;455.90;;;427.50;;
43819;SDS011;67762;52.476;6.046;2023-09-08T12:53:38;246.10;;;233.70;;
43819;SDS011;67762;52.476;6.046;2023-09-08T12:56:03;246.88;;;234.43;;
43819;SDS011;67762;52.476;6.046;2023-09-08T12:58:29;251.15;;;238.65;;
43819;SDS011;67762;52.476;6.046;2023-09-08T13:00:55;234.70;;;222.63;;
43819;SDS011;67762;52.476;6.046;2023-09-08T13:03:21;298.60;;;283.38;;
43819;SDS011;67762;52.476;6.046;2023-09-08T13:05:47;291.70;;;276.17;;
43819;SDS011;67762;52.476;6.046;2023-09-08T13:08:13;245.65;;;233.15;;
43819;SDS011;67762;52.476;6.046;2023-09-08T13:10:40;282.40;;;268.05;;
43819;SDS011;67762;52.476;6.046;2023-09-08T13:13:06;265.55;;;252.43;;
43819;SDS011;67762;52.476;6.046;2023-09-08T13:15:32;329.65;;;311.38;;
43819;SDS011;67762;52.476;6.046;2023-09-08T13:17:58;241.40;;;229.25;;
43819;SDS011;67762;52.476;6.046;2023-09-08T13:20:23;248.35;;;235.70;;
43819;SDS011;67762;52.476;6.046;2023-09-08T13:22:49;246.15;;;233.98;;
43819;SDS011;67762;52.476;6.046;2023-09-08T13:25:15;230.85;;;218.85;;
43819;SDS011;67762;52.476;6.046;2023-09-08T13:27:41;251.48;;;238.85;;
43819;SDS011;67762;52.476;6.046;2023-09-08T13:30:10;238.55;;;226.73;;
43819;SDS011;67762;52.476;6.046;2023-09-08T13:32:41;238.23;;;226.07;;
43819;SDS011;67762;52.476;6.046;2023-09-08T13:35:08;248.60;;;236.13;;
43819;SDS011;67762;52.476;6.046;2023-09-08T13:37:34;251.60;;;239.00;;
43819;SDS011;67762;52.476;6.046;2023-09-08T13:40:01;346.25;;;327.83;;
43819;SDS011;67762;52.476;6.046;2023-09-08T13:42:29;234.95;;;223.23;;
43819;SDS011;67762;52.476;6.046;2023-09-08T13:44:54;233.60;;;221.93;;
43819;SDS011;67762;52.476;6.046;2023-09-08T13:47:20;130.77;;;123.90;;
43819;SDS011;67762;52.476;6.046;2023-09-08T13:49:46;254.30;;;241.68;;
43819;SDS011;67762;52.476;6.046;2023-09-08T13:52:12;226.13;;;214.45;;
43819;SDS011;67762;52.476;6.046;2023-09-08T13:54:38;250.40;;;238.00;;
43819;SDS011;67762;52.476;6.046;2023-09-08T13:57:04;294.17;;;278.83;;
43819;SDS011;67762;52.476;6.046;2023-09-08T13:59:30;253.82;;;240.90;;
43819;SDS011;67762;52.476;6.046;2023-09-08T14:01:56;136.48;;;129.48;;
43819;SDS011;67762;52.476;6.046;2023-09-08T14:04:27;266.02;;;252.48;;